sensor_id;sensor_type;location;lat;lon;timestamp;pressure;altitude;pressure_sealevel;temperature;humidity
33949;BME280;20229;49.856;19.030;2022-12-26T00:02:21;101698.55;;;7.49;95.78
33949;BME280;20229;49.856;19.030;2022-12-26T00:07:45;101706.59;;;7.52;95.38
33949;BME280;20229;49.856;19.030;2022-12-26T00:12:49;101687.48;;;7.55;95.80
33949;BME280;20229;49.856;19.030;2022-12-26T00:18:11;101653.54;;;7.70;95.79
33949;BME280;20229;49.856;19.030;2022-12-26T00:23:14;101653.91;;;7.89;95.71
33949;BME280;20229;49.856;19.030;2022-12-26T00:28:37;101670.77;;;8.00;94.94
33949;BME280;20229;49.856;19.030;2022-12-26T00:33:41;101670.52;;;8.09;94.65
33949;BME280;20229;49.856;19.030;2022-12-26T00:39:03;101651.35;;;8.12;94.70
33949;BME280;20229;49.856;19.030;2022-12-26T00:44:07;101636.48;;;8.24;94.37
33949;BME280;20229;49.856;19.030;2022-12-26T00:49:28;101655.04;;;8.41;94.18
33949;BME280;20229;49.856;19.030;2022-12-26T00:54:32;101661.35;;;8.70;94.16
33949;BME280;20229;49.856;19.030;2022-12-26T00:59:54;101637.98;;;8.89;93.37
33949;BME280;20229;49.856;19.030;2022-12-26T01:04:58;101640.02;;;9.09;92.54
33949;BME280;20229;49.856;19.030;2022-12-26T01:10:20;101637.73;;;9.22;91.63
33949;BME280;20229;49.856;19.030;2022-12-26T01:15:24;101630.89;;;9.35;91.05
33949;BME280;20229;49.856;19.030;2022-12-26T01:20:46;101626.22;;;9.39;90.94
33949;BME280;20229;49.856;19.030;2022-12-26T01:25:50;101613.85;;;9.53;89.89
33949;BME280;20229;49.856;19.030;2022-12-26T01:31:10;101613.59;;;9.61;88.70
33949;BME280;20229;49.856;19.030;2022-12-26T01:36:14;101615.06;;;9.70;89.15
33949;BME280;20229;49.856;19.030;2022-12-26T01:41:36;101629.69;;;9.67;89.49
33949;BME280;20229;49.856;19.030;2022-12-26T01:46:43;101631.42;;;9.70;88.97
33949;BME280;20229;49.856;19.030;2022-12-26T01:52:06;101645.12;;;9.68;88.96
33949;BME280;20229;49.856;19.030;2022-12-26T01:57:19;101629.05;;;9.84;88.10
33949;BME280;20229;49.856;19.030;2022-12-26T02:02:28;101633.43;;;9.88;88.03
33949;BME280;20229;49.856;19.030;2022-12-26T02:07:38;101622.98;;;9.99;87.43
33949;BME280;20229;49.856;19.030;2022-12-26T02:12:54;101635.62;;;10.02;86.83
33949;BME280;20229;49.856;19.030;2022-12-26T02:17:58;101622.44;;;10.13;86.21
33949;BME280;20229;49.856;19.030;2022-12-26T02:39:17;101589.05;;;10.30;85.26
33949;BME280;20229;49.856;19.030;2022-12-26T02:44:26;101576.24;;;10.32;85.21
33949;BME280;20229;49.856;19.030;2022-12-26T02:55:19;101530.31;;;10.20;84.78
33949;BME280;20229;49.856;19.030;2022-12-26T03:00:38;101514.34;;;10.11;85.21
33949;BME280;20229;49.856;19.030;2022-12-26T03:06:04;101501.08;;;10.01;85.41
33949;BME280;20229;49.856;19.030;2022-12-26T03:11:25;101495.49;;;10.04;85.54
33949;BME280;20229;49.856;19.030;2022-12-26T03:16:46;101496.38;;;10.05;85.75
33949;BME280;20229;49.856;19.030;2022-12-26T03:22:05;101498.27;;;10.03;85.72
33949;BME280;20229;49.856;19.030;2022-12-26T03:27:19;101524.21;;;9.91;85.48
33949;BME280;20229;49.856;19.030;2022-12-26T03:32:23;101538.37;;;9.79;85.19
33949;BME280;20229;49.856;19.030;2022-12-26T03:53:47;101547.12;;;9.87;85.64
33949;BME280;20229;49.856;19.030;2022-12-26T03:59:10;101556.38;;;9.83;85.26
33949;BME280;20229;49.856;19.030;2022-12-26T04:04:29;101532.77;;;9.82;85.51
33949;BME280;20229;49.856;19.030;2022-12-26T04:09:56;101516.55;;;9.79;85.42
33949;BME280;20229;49.856;19.030;2022-12-26T04:15:19;101527.46;;;9.79;85.46
33949;BME280;20229;49.856;19.030;2022-12-26T04:20:44;101523.24;;;9.70;84.82
33949;BME280;20229;49.856;19.030;2022-12-26T04:37:20;101503.20;;;9.71;85.32
33949;BME280;20229;49.856;19.030;2022-12-26T04:42:38;101516.71;;;9.74;85.13
33949;BME280;20229;49.856;19.030;2022-12-26T04:47:55;101520.47;;;9.72;85.33
33949;BME280;20229;49.856;19.030;2022-12-26T04:53:13;101531.38;;;9.72;85.00
33949;BME280;20229;49.856;19.030;2022-12-26T04:58:17;101534.38;;;9.64;84.99
33949;BME280;20229;49.856;19.030;2022-12-26T05:03:20;101533.80;;;9.56;85.48
33949;BME280;20229;49.856;19.030;2022-12-26T05:08:38;101545.90;;;9.49;85.51
33949;BME280;20229;49.856;19.030;2022-12-26T05:13:56;101554.00;;;9.50;85.63
33949;BME280;20229;49.856;19.030;2022-12-26T05:19:00;101557.91;;;9.43;85.82
33949;BME280;20229;49.856;19.030;2022-12-26T05:24:15;101541.70;;;9.40;85.72
33949;BME280;20229;49.856;19.030;2022-12-26T05:29:31;101541.16;;;9.30;85.81
33949;BME280;20229;49.856;19.030;2022-12-26T05:34:34;101534.04;;;9.26;85.63
33949;BME280;20229;49.856;19.030;2022-12-26T05:39:46;101545.09;;;9.22;86.01
33949;BME280;20229;49.856;19.030;2022-12-26T05:44:50;101536.93;;;9.22;86.52
33949;BME280;20229;49.856;19.030;2022-12-26T05:50:12;101558.61;;;9.25;86.35
33949;BME280;20229;49.856;19.030;2022-12-26T05:55:15;101575.73;;;9.28;86.08
33949;BME280;20229;49.856;19.030;2022-12-26T06:00:38;101589.61;;;9.22;85.99
33949;BME280;20229;49.856;19.030;2022-12-26T06:05:41;101596.22;;;9.15;85.91
33949;BME280;20229;49.856;19.030;2022-12-26T06:11:11;101596.08;;;8.93;86.06
33949;BME280;20229;49.856;19.030;2022-12-26T06:16:17;101583.12;;;8.75;85.83
33949;BME280;20229;49.856;19.030;2022-12-26T06:21:30;101577.57;;;8.51;86.21
33949;BME280;20229;49.856;19.030;2022-12-26T06:26:33;101583.14;;;8.48;87.65
33949;BME280;20229;49.856;19.030;2022-12-26T06:31:56;101593.34;;;8.42;87.41
33949;BME280;20229;49.856;19.030;2022-12-26T06:36:59;101588.94;;;8.37;87.08
33949;BME280;20229;49.856;19.030;2022-12-26T06:42:21;101593.00;;;8.23;87.24
33949;BME280;20229;49.856;19.030;2022-12-26T06:47:25;101591.41;;;8.15;87.65
33949;BME280;20229;49.856;19.030;2022-12-26T06:52:50;101586.30;;;8.06;88.56
33949;BME280;20229;49.856;19.030;2022-12-26T06:57:54;101585.79;;;8.22;88.37
33949;BME280;20229;49.856;19.030;2022-12-26T07:03:16;101595.49;;;8.30;89.01
33949;BME280;20229;49.856;19.030;2022-12-26T07:08:19;101582.39;;;8.43;88.86
33949;BME280;20229;49.856;19.030;2022-12-26T07:13:41;101564.71;;;8.56;88.91
33949;BME280;20229;49.856;19.030;2022-12-26T07:18:46;101545.75;;;8.80;88.24
33949;BME280;20229;49.856;19.030;2022-12-26T07:24:15;101535.25;;;8.94;88.37
33949;BME280;20229;49.856;19.030;2022-12-26T07:29:19;101536.70;;;9.28;87.69
33949;BME280;20229;49.856;19.030;2022-12-26T07:34:33;101546.89;;;9.46;87.09
33949;BME280;20229;49.856;19.030;2022-12-26T07:39:36;101566.21;;;9.64;86.65
33949;BME280;20229;49.856;19.030;2022-12-26T07:44:59;101594.09;;;9.72;86.20
33949;BME280;20229;49.856;19.030;2022-12-26T07:50:03;101597.33;;;9.81;86.35
33949;BME280;20229;49.856;19.030;2022-12-26T07:55:24;101602.36;;;9.92;86.14
33949;BME280;20229;49.856;19.030;2022-12-26T08:00:28;101601.69;;;10.09;85.96
33949;BME280;20229;49.856;19.030;2022-12-26T08:05:50;101617.44;;;10.24;85.48
33949;BME280;20229;49.856;19.030;2022-12-26T08:11:00;101605.30;;;10.33;85.02
33949;BME280;20229;49.856;19.030;2022-12-26T08:16:16;101602.38;;;10.38;85.07
33949;BME280;20229;49.856;19.030;2022-12-26T08:21:20;101620.66;;;10.58;84.38
33949;BME280;20229;49.856;19.030;2022-12-26T08:26:42;101617.62;;;10.65;84.28
33949;BME280;20229;49.856;19.030;2022-12-26T08:31:45;101622.70;;;10.74;83.97
33949;BME280;20229;49.856;19.030;2022-12-26T08:37:08;101619.63;;;10.82;83.86
33949;BME280;20229;49.856;19.030;2022-12-26T08:42:11;101612.06;;;10.89;83.98
33949;BME280;20229;49.856;19.030;2022-12-26T08:47:33;101622.64;;;10.96;83.72
33949;BME280;20229;49.856;19.030;2022-12-26T08:52:37;101629.20;;;11.13;84.17
33949;BME280;20229;49.856;19.030;2022-12-26T08:57:59;101628.28;;;11.34;83.21
33949;BME280;20229;49.856;19.030;2022-12-26T09:03:02;101624.62;;;11.54;82.17
33949;BME280;20229;49.856;19.030;2022-12-26T09:08:27;101643.48;;;11.60;81.64
33949;BME280;20229;49.856;19.030;2022-12-26T09:13:32;101631.36;;;11.66;81.46
33949;BME280;20229;49.856;19.030;2022-12-26T09:18:56;101653.10;;;11.69;82.02
33949;BME280;20229;49.856;19.030;2022-12-26T09:24:03;101641.05;;;11.73;81.79
33949;BME280;20229;49.856;19.030;2022-12-26T09:29:17;101643.96;;;11.70;81.58
33949;BME280;20229;49.856;19.030;2022-12-26T09:34:20;101628.73;;;11.83;81.60
33949;BME280;20229;49.856;19.030;2022-12-26T09:39:43;101633.66;;;11.95;80.79
33949;BME280;20229;49.856;19.030;2022-12-26T09:45:38;101625.74;;;12.08;80.05
33949;BME280;20229;49.856;19.030;2022-12-26T09:50:16;101608.89;;;12.17;81.00
33949;BME280;20229;49.856;19.030;2022-12-26T10:00:44;101629.62;;;12.23;81.81
33949;BME280;20229;49.856;19.030;2022-12-26T10:27:02;101584.41;;;11.95;83.18
33949;BME280;20229;49.856;19.030;2022-12-26T10:32:12;101580.05;;;11.91;83.92
33949;BME280;20229;49.856;19.030;2022-12-26T10:42:38;101564.05;;;12.01;83.91
33949;BME280;20229;49.856;19.030;2022-12-26T10:47:49;101566.26;;;12.12;84.07
33949;BME280;20229;49.856;19.030;2022-12-26T10:52:55;101565.97;;;12.18;83.82
33949;BME280;20229;49.856;19.030;2022-12-26T10:58:04;101558.28;;;12.26;83.58
33949;BME280;20229;49.856;19.030;2022-12-26T11:03:13;101554.34;;;12.32;83.11
33949;BME280;20229;49.856;19.030;2022-12-26T11:13:41;101560.82;;;12.48;82.06
33949;BME280;20229;49.856;19.030;2022-12-26T11:18:49;101564.60;;;12.46;81.60
33949;BME280;20229;49.856;19.030;2022-12-26T11:24:15;101559.56;;;12.36;81.75
33949;BME280;20229;49.856;19.030;2022-12-26T11:29:21;101547.34;;;12.43;81.02
33949;BME280;20229;49.856;19.030;2022-12-26T11:34:34;101550.99;;;12.44;80.84
33949;BME280;20229;49.856;19.030;2022-12-26T11:39:38;101559.11;;;12.46;81.00
33949;BME280;20229;49.856;19.030;2022-12-26T11:44:56;101535.75;;;12.38;81.13
33949;BME280;20229;49.856;19.030;2022-12-26T11:50:10;101536.57;;;12.40;80.83
33949;BME280;20229;49.856;19.030;2022-12-26T11:55:29;101528.41;;;12.39;80.90
33949;BME280;20229;49.856;19.030;2022-12-26T12:28:53;101519.40;;;12.54;79.30
33949;BME280;20229;49.856;19.030;2022-12-26T12:39:19;101516.91;;;12.50;80.39
33949;BME280;20229;49.856;19.030;2022-12-26T13:00:17;101504.20;;;12.66;77.95
33949;BME280;20229;49.856;19.030;2022-12-26T13:05:38;101511.91;;;12.75;77.10
33949;BME280;20229;49.856;19.030;2022-12-26T13:10:51;101511.91;;;12.75;77.51
33949;BME280;20229;49.856;19.030;2022-12-26T13:16:01;101510.47;;;12.68;77.18
33949;BME280;20229;49.856;19.030;2022-12-26T13:21:10;101512.88;;;12.57;77.85
33949;BME280;20229;49.856;19.030;2022-12-26T13:26:21;101507.25;;;12.60;78.24
33949;BME280;20229;49.856;19.030;2022-12-26T13:31:36;101521.92;;;12.59;77.82
33949;BME280;20229;49.856;19.030;2022-12-26T13:36:51;101518.66;;;12.51;78.03
33949;BME280;20229;49.856;19.030;2022-12-26T13:41:57;101519.47;;;12.35;78.36
33949;BME280;20229;49.856;19.030;2022-12-26T13:52:34;101519.62;;;12.32;78.44
33949;BME280;20229;49.856;19.030;2022-12-26T13:57:42;101521.23;;;12.36;77.97
33949;BME280;20229;49.856;19.030;2022-12-26T14:23:58;101513.32;;;12.13;78.91
33949;BME280;20229;49.856;19.030;2022-12-26T14:40:15;101534.04;;;12.00;78.47
33949;BME280;20229;49.856;19.030;2022-12-26T14:46:05;101539.66;;;11.96;78.55
33949;BME280;20229;49.856;19.030;2022-12-26T14:50:41;101537.07;;;11.93;78.25
33949;BME280;20229;49.856;19.030;2022-12-26T14:55:48;101528.12;;;11.90;78.25
33949;BME280;20229;49.856;19.030;2022-12-26T15:00:53;101531.74;;;11.90;77.81
33949;BME280;20229;49.856;19.030;2022-12-26T15:21:54;101528.76;;;11.76;78.14
33949;BME280;20229;49.856;19.030;2022-12-26T15:32:23;101520.13;;;11.66;78.23
33949;BME280;20229;49.856;19.030;2022-12-26T15:48:09;101519.82;;;11.54;78.78
33949;BME280;20229;49.856;19.030;2022-12-26T16:03:52;101522.83;;;11.47;79.04
33949;BME280;20229;49.856;19.030;2022-12-26T16:09:07;101514.77;;;11.44;78.90
33949;BME280;20229;49.856;19.030;2022-12-26T16:19:27;101528.67;;;11.40;80.76
33949;BME280;20229;49.856;19.030;2022-12-26T16:24:32;101547.14;;;11.35;81.80
33949;BME280;20229;49.856;19.030;2022-12-26T16:29:45;101543.11;;;11.23;83.17
33949;BME280;20229;49.856;19.030;2022-12-26T16:34:50;101559.86;;;11.15;84.70
33949;BME280;20229;49.856;19.030;2022-12-26T16:45:18;101597.09;;;10.97;86.31
33949;BME280;20229;49.856;19.030;2022-12-26T16:50:25;101583.91;;;10.87;87.03
33949;BME280;20229;49.856;19.030;2022-12-26T16:55:36;101598.79;;;10.80;87.56
33949;BME280;20229;49.856;19.030;2022-12-26T17:00:52;101594.62;;;10.71;88.09
33949;BME280;20229;49.856;19.030;2022-12-26T17:05:54;101596.77;;;10.63;88.97
33949;BME280;20229;49.856;19.030;2022-12-26T17:10:59;101569.88;;;10.53;89.40
33949;BME280;20229;49.856;19.030;2022-12-26T17:16:06;101560.98;;;10.48;90.20
33949;BME280;20229;49.856;19.030;2022-12-26T17:21:21;101546.90;;;10.37;90.08
33949;BME280;20229;49.856;19.030;2022-12-26T17:26:28;101501.59;;;10.33;90.26
33949;BME280;20229;49.856;19.030;2022-12-26T17:31:41;101479.22;;;10.23;91.09
33949;BME280;20229;49.856;19.030;2022-12-26T17:36:45;101505.75;;;10.20;91.50
33949;BME280;20229;49.856;19.030;2022-12-26T17:41:51;101519.04;;;10.07;92.04
33949;BME280;20229;49.856;19.030;2022-12-26T17:47:01;101509.05;;;10.06;92.04
33949;BME280;20229;49.856;19.030;2022-12-26T17:52:16;101504.89;;;9.97;92.21
33949;BME280;20229;49.856;19.030;2022-12-26T17:57:23;101495.74;;;9.98;92.66
33949;BME280;20229;49.856;19.030;2022-12-26T18:02:40;101500.43;;;9.95;92.64
33949;BME280;20229;49.856;19.030;2022-12-26T18:07:44;101497.63;;;9.96;92.76
33949;BME280;20229;49.856;19.030;2022-12-26T18:13:08;101498.79;;;9.91;92.97
33949;BME280;20229;49.856;19.030;2022-12-26T18:18:24;101492.45;;;9.90;93.19
33949;BME280;20229;49.856;19.030;2022-12-26T18:23:31;101505.65;;;9.79;94.14
33949;BME280;20229;49.856;19.030;2022-12-26T18:28:34;101530.34;;;9.74;94.15
33949;BME280;20229;49.856;19.030;2022-12-26T18:33:57;101569.78;;;9.66;95.11
33949;BME280;20229;49.856;19.030;2022-12-26T18:39:01;101568.82;;;9.67;95.18
33949;BME280;20229;49.856;19.030;2022-12-26T18:44:22;101550.70;;;9.66;94.97
33949;BME280;20229;49.856;19.030;2022-12-26T18:49:26;101554.30;;;9.66;95.14
33949;BME280;20229;49.856;19.030;2022-12-26T18:54:48;101552.81;;;9.57;94.78
33949;BME280;20229;49.856;19.030;2022-12-26T18:59:51;101542.09;;;9.53;94.80
33949;BME280;20229;49.856;19.030;2022-12-26T19:05:19;101532.69;;;9.38;94.41
33949;BME280;20229;49.856;19.030;2022-12-26T19:10:27;101540.38;;;9.27;94.69
33949;BME280;20229;49.856;19.030;2022-12-26T19:15:44;101544.61;;;9.10;94.90
33949;BME280;20229;49.856;19.030;2022-12-26T19:20:48;101563.79;;;9.07;95.11
33949;BME280;20229;49.856;19.030;2022-12-26T19:26:11;101571.36;;;8.99;95.59
33949;BME280;20229;49.856;19.030;2022-12-26T19:31:14;101574.15;;;8.98;95.15
33949;BME280;20229;49.856;19.030;2022-12-26T19:36:32;101567.75;;;8.99;95.61
33949;BME280;20229;49.856;19.030;2022-12-26T19:41:35;101571.92;;;9.09;95.46
33949;BME280;20229;49.856;19.030;2022-12-26T19:46:57;101568.06;;;9.15;95.01
33949;BME280;20229;49.856;19.030;2022-12-26T19:52:01;101571.30;;;9.26;94.92
33949;BME280;20229;49.856;19.030;2022-12-26T19:57:23;101560.27;;;9.29;94.23
33949;BME280;20229;49.856;19.030;2022-12-26T20:02:28;101551.06;;;9.33;93.76
33949;BME280;20229;49.856;19.030;2022-12-26T20:07:49;101558.38;;;9.31;93.54
33949;BME280;20229;49.856;19.030;2022-12-26T20:12:52;101542.81;;;9.34;93.43
33949;BME280;20229;49.856;19.030;2022-12-26T20:18:15;101541.81;;;9.37;93.16
33949;BME280;20229;49.856;19.030;2022-12-26T20:23:21;101557.02;;;9.43;92.70
33949;BME280;20229;49.856;19.030;2022-12-26T20:28:41;101552.64;;;9.39;92.69
33949;BME280;20229;49.856;19.030;2022-12-26T20:33:48;101547.91;;;9.44;92.21
33949;BME280;20229;49.856;19.030;2022-12-26T20:39:11;101553.37;;;9.44;92.01
33949;BME280;20229;49.856;19.030;2022-12-26T20:44:16;101576.77;;;9.49;91.30
33949;BME280;20229;49.856;19.030;2022-12-26T20:49:35;101576.65;;;9.52;91.35
33949;BME280;20229;49.856;19.030;2022-12-26T20:54:38;101577.23;;;9.61;90.81
33949;BME280;20229;49.856;19.030;2022-12-26T20:59:58;101568.90;;;9.65;90.58
33949;BME280;20229;49.856;19.030;2022-12-26T21:05:01;101578.53;;;9.74;90.15
33949;BME280;20229;49.856;19.030;2022-12-26T21:10:23;101602.08;;;9.76;89.52
33949;BME280;20229;49.856;19.030;2022-12-26T21:15:27;101609.00;;;9.85;90.01
33949;BME280;20229;49.856;19.030;2022-12-26T21:20:49;101603.66;;;9.82;89.76
33949;BME280;20229;49.856;19.030;2022-12-26T21:25:56;101602.73;;;9.83;89.75
33949;BME280;20229;49.856;19.030;2022-12-26T21:31:15;101602.02;;;9.78;89.68
33949;BME280;20229;49.856;19.030;2022-12-26T21:36:18;101615.49;;;9.83;89.44
33949;BME280;20229;49.856;19.030;2022-12-26T21:41:41;101614.57;;;9.82;89.54
33949;BME280;20229;49.856;19.030;2022-12-26T21:46:44;101601.66;;;9.87;89.16
33949;BME280;20229;49.856;19.030;2022-12-26T21:52:07;101593.71;;;9.81;89.19
33949;BME280;20229;49.856;19.030;2022-12-26T21:57:11;101587.45;;;9.79;89.09
33949;BME280;20229;49.856;19.030;2022-12-26T22:02:35;101584.77;;;9.77;89.05
33949;BME280;20229;49.856;19.030;2022-12-26T22:07:53;101575.59;;;9.80;89.03
33949;BME280;20229;49.856;19.030;2022-12-26T22:12:59;101583.11;;;9.73;89.12
33949;BME280;20229;49.856;19.030;2022-12-26T22:18:03;101578.65;;;9.71;89.25
33949;BME280;20229;49.856;19.030;2022-12-26T22:23:24;101579.73;;;9.67;89.09
33949;BME280;20229;49.856;19.030;2022-12-26T22:28:28;101589.44;;;9.74;88.99
33949;BME280;20229;49.856;19.030;2022-12-26T22:33:57;101592.14;;;9.75;88.97
33949;BME280;20229;49.856;19.030;2022-12-26T22:39:02;101592.75;;;9.82;89.01
33949;BME280;20229;49.856;19.030;2022-12-26T22:44:16;101602.77;;;9.81;88.56
33949;BME280;20229;49.856;19.030;2022-12-26T22:49:20;101587.18;;;9.85;88.92
33949;BME280;20229;49.856;19.030;2022-12-26T22:54:42;101589.10;;;9.83;88.42
33949;BME280;20229;49.856;19.030;2022-12-26T22:59:47;101584.46;;;9.85;88.02
33949;BME280;20229;49.856;19.030;2022-12-26T23:05:10;101573.62;;;9.84;87.89
33949;BME280;20229;49.856;19.030;2022-12-26T23:10:18;101564.44;;;9.86;87.93
33949;BME280;20229;49.856;19.030;2022-12-26T23:15:46;101572.78;;;9.81;88.01
33949;BME280;20229;49.856;19.030;2022-12-26T23:20:46;101570.83;;;9.85;87.68
33949;BME280;20229;49.856;19.030;2022-12-26T23:26:02;101569.16;;;9.81;87.71
33949;BME280;20229;49.856;19.030;2022-12-26T23:31:06;101558.14;;;9.84;88.06
33949;BME280;20229;49.856;19.030;2022-12-26T23:36:25;101570.94;;;9.82;87.85
33949;BME280;20229;49.856;19.030;2022-12-26T23:41:29;101565.33;;;9.87;87.72
33949;BME280;20229;49.856;19.030;2022-12-26T23:46:51;101561.71;;;9.86;87.46
33949;BME280;20229;49.856;19.030;2022-12-26T23:51:55;101555.11;;;9.92;87.09
33949;BME280;20229;49.856;19.030;2022-12-26T23:57:17;101546.88;;;9.93;86.96
